sensor_id;sensor_type;location;lat;lon;timestamp;P1;durP1;ratioP1;P2;durP2;ratioP2
59157;SDS011;44940;55.060;73.168;2022-08-18T00:00:07;3.40;;;1.20;;
59157;SDS011;44940;55.060;73.168;2022-08-18T00:02:39;2.90;;;1.00;;
59157;SDS011;44940;55.060;73.168;2022-08-18T00:05:09;2.08;;;1.10;;
59157;SDS011;44940;55.060;73.168;2022-08-18T00:07:40;2.38;;;1.48;;
59157;SDS011;44940;55.060;73.168;2022-08-18T00:10:07;2.85;;;1.38;;
59157;SDS011;44940;55.060;73.168;2022-08-18T00:12:35;2.53;;;1.30;;
59157;SDS011;44940;55.060;73.168;2022-08-18T00:15:04;3.42;;;1.35;;
59157;SDS011;44940;55.060;73.168;2022-08-18T00:17:33;1.75;;;1.30;;
59157;SDS011;44940;55.060;73.168;2022-08-18T00:20:00;2.65;;;1.20;;
59157;SDS011;44940;55.060;73.168;2022-08-18T00:22:29;1.30;;;1.10;;
59157;SDS011;44940;55.060;73.168;2022-08-18T00:24:56;2.40;;;1.00;;
59157;SDS011;44940;55.060;73.168;2022-08-18T00:27:24;1.92;;;1.10;;
59157;SDS011;44940;55.060;73.168;2022-08-18T00:29:53;1.88;;;0.98;;
59157;SDS011;44940;55.060;73.168;2022-08-18T00:32:22;2.10;;;1.00;;
59157;SDS011;44940;55.060;73.168;2022-08-18T00:34:51;2.08;;;1.20;;
59157;SDS011;44940;55.060;73.168;2022-08-18T00:37:19;6.47;;;1.30;;
59157;SDS011;44940;55.060;73.168;2022-08-18T00:39:50;3.05;;;1.05;;
59157;SDS011;44940;55.060;73.168;2022-08-18T00:42:20;3.05;;;1.10;;
59157;SDS011;44940;55.060;73.168;2022-08-18T00:44:49;2.08;;;1.27;;
59157;SDS011;44940;55.060;73.168;2022-08-18T00:47:16;2.85;;;1.15;;
59157;SDS011;44940;55.060;73.168;2022-08-18T00:49:43;1.98;;;1.08;;
59157;SDS011;44940;55.060;73.168;2022-08-18T00:52:16;1.73;;;1.20;;
59157;SDS011;44940;55.060;73.168;2022-08-18T00:54:44;3.30;;;1.02;;
59157;SDS011;44940;55.060;73.168;2022-08-18T00:57:14;3.05;;;1.30;;
59157;SDS011;44940;55.060;73.168;2022-08-18T00:59:47;2.30;;;1.40;;
59157;SDS011;44940;55.060;73.168;2022-08-18T01:02:22;3.33;;;1.35;;
59157;SDS011;44940;55.060;73.168;2022-08-18T01:05:02;6.00;;;2.20;;
59157;SDS011;44940;55.060;73.168;2022-08-18T01:07:34;8.52;;;2.90;;
59157;SDS011;44940;55.060;73.168;2022-08-18T01:10:06;5.82;;;2.70;;
59157;SDS011;44940;55.060;73.168;2022-08-18T01:12:35;6.25;;;3.17;;
59157;SDS011;44940;55.060;73.168;2022-08-18T01:15:02;10.07;;;4.00;;
59157;SDS011;44940;55.060;73.168;2022-08-18T01:17:30;7.35;;;4.13;;
59157;SDS011;44940;55.060;73.168;2022-08-18T01:20:17;9.20;;;4.88;;
59157;SDS011;44940;55.060;73.168;2022-08-18T01:23:08;12.90;;;5.57;;
59157;SDS011;44940;55.060;73.168;2022-08-18T01:25:39;14.43;;;5.55;;
59157;SDS011;44940;55.060;73.168;2022-08-18T01:28:25;13.40;;;5.75;;
59157;SDS011;44940;55.060;73.168;2022-08-18T01:30:53;7.10;;;4.82;;
59157;SDS011;44940;55.060;73.168;2022-08-18T01:33:24;7.10;;;5.10;;
59157;SDS011;44940;55.060;73.168;2022-08-18T01:35:52;7.63;;;4.80;;
59157;SDS011;44940;55.060;73.168;2022-08-18T01:38:21;9.35;;;4.10;;
59157;SDS011;44940;55.060;73.168;2022-08-18T01:40:48;4.82;;;3.38;;
59157;SDS011;44940;55.060;73.168;2022-08-18T01:43:16;6.88;;;3.47;;
59157;SDS011;44940;55.060;73.168;2022-08-18T01:45:43;4.53;;;2.80;;
59157;SDS011;44940;55.060;73.168;2022-08-18T01:48:10;8.82;;;2.80;;
59157;SDS011;44940;55.060;73.168;2022-08-18T01:50:37;4.93;;;2.20;;
59157;SDS011;44940;55.060;73.168;2022-08-18T01:53:06;9.65;;;2.10;;
59157;SDS011;44940;55.060;73.168;2022-08-18T01:55:36;2.97;;;1.70;;
59157;SDS011;44940;55.060;73.168;2022-08-18T01:58:05;9.00;;;2.25;;
59157;SDS011;44940;55.060;73.168;2022-08-18T02:00:33;4.90;;;1.33;;
59157;SDS011;44940;55.060;73.168;2022-08-18T02:03:01;7.57;;;1.48;;
59157;SDS011;44940;55.060;73.168;2022-08-18T02:05:33;6.93;;;1.00;;
59157;SDS011;44940;55.060;73.168;2022-08-18T02:08:02;3.42;;;1.00;;
59157;SDS011;44940;55.060;73.168;2022-08-18T02:10:30;6.25;;;1.23;;
59157;SDS011;44940;55.060;73.168;2022-08-18T02:12:58;1.92;;;0.90;;
59157;SDS011;44940;55.060;73.168;2022-08-18T02:15:25;4.00;;;1.05;;
59157;SDS011;44940;55.060;73.168;2022-08-18T02:17:53;2.70;;;0.90;;
59157;SDS011;44940;55.060;73.168;2022-08-18T02:20:20;4.75;;;1.10;;
59157;SDS011;44940;55.060;73.168;2022-08-18T02:22:47;1.20;;;0.77;;
59157;SDS011;44940;55.060;73.168;2022-08-18T02:25:16;1.48;;;0.90;;
59157;SDS011;44940;55.060;73.168;2022-08-18T02:27:44;6.18;;;0.70;;
59157;SDS011;44940;55.060;73.168;2022-08-18T02:30:13;5.85;;;1.20;;
59157;SDS011;44940;55.060;73.168;2022-08-18T02:32:42;2.72;;;0.93;;
59157;SDS011;44940;55.060;73.168;2022-08-18T02:35:09;2.70;;;1.00;;
59157;SDS011;44940;55.060;73.168;2022-08-18T02:37:37;4.18;;;0.88;;
59157;SDS011;44940;55.060;73.168;2022-08-18T02:40:04;3.00;;;1.10;;
59157;SDS011;44940;55.060;73.168;2022-08-18T02:42:32;4.25;;;1.00;;
59157;SDS011;44940;55.060;73.168;2022-08-18T02:44:59;2.85;;;0.75;;
59157;SDS011;44940;55.060;73.168;2022-08-18T02:47:28;2.42;;;1.27;;
59157;SDS011;44940;55.060;73.168;2022-08-18T02:49:55;1.20;;;0.80;;
59157;SDS011;44940;55.060;73.168;2022-08-18T02:52:22;3.58;;;1.00;;
59157;SDS011;44940;55.060;73.168;2022-08-18T02:54:54;4.63;;;0.93;;
59157;SDS011;44940;55.060;73.168;2022-08-18T02:57:21;0.88;;;0.70;;
59157;SDS011;44940;55.060;73.168;2022-08-18T02:59:48;3.55;;;0.63;;
59157;SDS011;44940;55.060;73.168;2022-08-18T03:02:15;2.35;;;0.70;;
59157;SDS011;44940;55.060;73.168;2022-08-18T03:04:44;2.22;;;1.08;;
59157;SDS011;44940;55.060;73.168;2022-08-18T03:07:11;0.90;;;0.60;;
59157;SDS011;44940;55.060;73.168;2022-08-18T03:09:39;1.17;;;0.70;;
59157;SDS011;44940;55.060;73.168;2022-08-18T03:12:07;0.82;;;0.70;;
59157;SDS011;44940;55.060;73.168;2022-08-18T03:14:34;1.23;;;0.60;;
59157;SDS011;44940;55.060;73.168;2022-08-18T03:17:05;2.55;;;0.80;;
59157;SDS011;44940;55.060;73.168;2022-08-18T03:19:34;10.90;;;4.40;;
59157;SDS011;44940;55.060;73.168;2022-08-18T03:22:03;1.70;;;1.20;;
59157;SDS011;44940;55.060;73.168;2022-08-18T03:24:32;2.95;;;0.85;;
59157;SDS011;44940;55.060;73.168;2022-08-18T03:27:00;2.70;;;1.90;;
59157;SDS011;44940;55.060;73.168;2022-08-18T03:29:31;1.80;;;0.80;;
59157;SDS011;44940;55.060;73.168;2022-08-18T03:31:58;9.73;;;1.42;;
59157;SDS011;44940;55.060;73.168;2022-08-18T03:34:25;3.88;;;0.80;;
59157;SDS011;44940;55.060;73.168;2022-08-18T03:36:52;1.85;;;0.90;;
59157;SDS011;44940;55.060;73.168;2022-08-18T03:39:21;4.43;;;0.80;;
59157;SDS011;44940;55.060;73.168;2022-08-18T03:41:49;2.33;;;1.05;;
59157;SDS011;44940;55.060;73.168;2022-08-18T03:44:20;2.88;;;0.90;;
59157;SDS011;44940;55.060;73.168;2022-08-18T03:46:48;5.90;;;1.08;;
59157;SDS011;44940;55.060;73.168;2022-08-18T03:49:17;4.13;;;0.90;;
59157;SDS011;44940;55.060;73.168;2022-08-18T03:51:46;6.50;;;1.00;;
59157;SDS011;44940;55.060;73.168;2022-08-18T03:54:14;3.72;;;0.75;;
59157;SDS011;44940;55.060;73.168;2022-08-18T03:56:44;2.75;;;0.93;;
59157;SDS011;44940;55.060;73.168;2022-08-18T03:59:14;1.35;;;0.50;;
59157;SDS011;44940;55.060;73.168;2022-08-18T04:01:44;0.88;;;0.60;;
59157;SDS011;44940;55.060;73.168;2022-08-18T04:04:13;2.20;;;1.15;;
59157;SDS011;44940;55.060;73.168;2022-08-18T04:06:43;4.22;;;0.80;;
59157;SDS011;44940;55.060;73.168;2022-08-18T04:09:14;0.85;;;0.63;;
59157;SDS011;44940;55.060;73.168;2022-08-18T04:11:42;5.38;;;0.73;;
59157;SDS011;44940;55.060;73.168;2022-08-18T04:14:11;4.88;;;0.70;;
59157;SDS011;44940;55.060;73.168;2022-08-18T04:16:39;0.85;;;0.70;;
59157;SDS011;44940;55.060;73.168;2022-08-18T04:19:07;1.58;;;0.80;;
59157;SDS011;44940;55.060;73.168;2022-08-18T04:21:35;6.55;;;1.20;;
59157;SDS011;44940;55.060;73.168;2022-08-18T04:24:05;6.80;;;0.93;;
59157;SDS011;44940;55.060;73.168;2022-08-18T04:26:34;3.00;;;0.80;;
59157;SDS011;44940;55.060;73.168;2022-08-18T04:29:04;0.90;;;0.68;;
59157;SDS011;44940;55.060;73.168;2022-08-18T04:31:33;2.15;;;0.90;;
59157;SDS011;44940;55.060;73.168;2022-08-18T04:34:00;2.95;;;0.47;;
59157;SDS011;44940;55.060;73.168;2022-08-18T04:36:28;2.65;;;0.93;;
59157;SDS011;44940;55.060;73.168;2022-08-18T04:38:59;3.30;;;1.48;;
59157;SDS011;44940;55.060;73.168;2022-08-18T04:41:27;1.50;;;1.00;;
59157;SDS011;44940;55.060;73.168;2022-08-18T04:43:54;7.28;;;1.10;;
59157;SDS011;44940;55.060;73.168;2022-08-18T04:46:25;2.53;;;0.77;;
59157;SDS011;44940;55.060;73.168;2022-08-18T04:48:52;7.80;;;0.85;;
59157;SDS011;44940;55.060;73.168;2022-08-18T04:51:25;3.40;;;0.93;;
59157;SDS011;44940;55.060;73.168;2022-08-18T04:53:53;3.60;;;0.60;;
59157;SDS011;44940;55.060;73.168;2022-08-18T04:56:23;3.40;;;0.90;;
59157;SDS011;44940;55.060;73.168;2022-08-18T04:58:53;3.38;;;0.90;;
59157;SDS011;44940;55.060;73.168;2022-08-18T05:01:25;3.70;;;0.90;;
59157;SDS011;44940;55.060;73.168;2022-08-18T05:03:56;3.28;;;1.15;;
59157;SDS011;44940;55.060;73.168;2022-08-18T05:06:25;4.72;;;1.25;;
59157;SDS011;44940;55.060;73.168;2022-08-18T05:08:53;1.42;;;0.80;;
59157;SDS011;44940;55.060;73.168;2022-08-18T05:11:22;3.58;;;1.40;;
59157;SDS011;44940;55.060;73.168;2022-08-18T05:13:50;2.90;;;0.90;;
59157;SDS011;44940;55.060;73.168;2022-08-18T05:16:18;1.98;;;0.93;;
59157;SDS011;44940;55.060;73.168;2022-08-18T05:18:46;7.38;;;0.80;;
59157;SDS011;44940;55.060;73.168;2022-08-18T05:21:14;5.18;;;0.85;;
59157;SDS011;44940;55.060;73.168;2022-08-18T05:23:41;12.38;;;1.15;;
59157;SDS011;44940;55.060;73.168;2022-08-18T05:26:09;0.90;;;0.57;;
59157;SDS011;44940;55.060;73.168;2022-08-18T05:28:39;1.73;;;1.10;;
59157;SDS011;44940;55.060;73.168;2022-08-18T05:31:06;5.10;;;1.20;;
59157;SDS011;44940;55.060;73.168;2022-08-18T05:33:34;1.30;;;0.50;;
59157;SDS011;44940;55.060;73.168;2022-08-18T05:36:08;3.22;;;0.82;;
59157;SDS011;44940;55.060;73.168;2022-08-18T05:38:50;11.13;;;0.80;;
59157;SDS011;44940;55.060;73.168;2022-08-18T05:41:30;2.50;;;1.00;;
59157;SDS011;44940;55.060;73.168;2022-08-18T05:44:02;3.97;;;1.20;;
59157;SDS011;44940;55.060;73.168;2022-08-18T05:46:33;5.72;;;0.90;;
59157;SDS011;44940;55.060;73.168;2022-08-18T05:49:06;2.90;;;0.80;;
59157;SDS011;44940;55.060;73.168;2022-08-18T05:51:35;5.57;;;1.20;;
59157;SDS011;44940;55.060;73.168;2022-08-18T05:54:06;2.55;;;1.10;;
59157;SDS011;44940;55.060;73.168;2022-08-18T05:56:53;5.82;;;0.90;;
59157;SDS011;44940;55.060;73.168;2022-08-18T05:59:24;4.55;;;0.70;;
59157;SDS011;44940;55.060;73.168;2022-08-18T06:01:58;4.18;;;0.85;;
59157;SDS011;44940;55.060;73.168;2022-08-18T06:04:33;0.93;;;0.50;;
59157;SDS011;44940;55.060;73.168;2022-08-18T06:07:08;0.98;;;0.70;;
59157;SDS011;44940;55.060;73.168;2022-08-18T06:09:39;5.10;;;0.65;;
59157;SDS011;44940;55.060;73.168;2022-08-18T06:12:15;3.20;;;0.60;;
59157;SDS011;44940;55.060;73.168;2022-08-18T06:14:47;1.48;;;0.93;;
59157;SDS011;44940;55.060;73.168;2022-08-18T06:17:24;3.38;;;0.68;;
59157;SDS011;44940;55.060;73.168;2022-08-18T06:20:02;0.90;;;0.45;;
59157;SDS011;44940;55.060;73.168;2022-08-18T06:22:38;0.90;;;0.50;;
59157;SDS011;44940;55.060;73.168;2022-08-18T06:25:13;1.10;;;0.65;;
59157;SDS011;44940;55.060;73.168;2022-08-18T06:27:45;7.75;;;0.55;;
59157;SDS011;44940;55.060;73.168;2022-08-18T06:30:21;4.63;;;0.85;;
59157;SDS011;44940;55.060;73.168;2022-08-18T06:33:04;0.40;;;0.40;;
59157;SDS011;44940;55.060;73.168;2022-08-18T06:35:39;4.63;;;1.10;;
59157;SDS011;44940;55.060;73.168;2022-08-18T06:38:17;1.42;;;1.00;;
59157;SDS011;44940;55.060;73.168;2022-08-18T06:41:09;1.95;;;0.73;;
59157;SDS011;44940;55.060;73.168;2022-08-18T06:43:47;5.03;;;0.63;;
59157;SDS011;44940;55.060;73.168;2022-08-18T06:46:22;4.35;;;0.82;;
59157;SDS011;44940;55.060;73.168;2022-08-18T06:48:59;2.10;;;0.68;;
59157;SDS011;44940;55.060;73.168;2022-08-18T06:54:00;1.20;;;0.60;;
59157;SDS011;44940;55.060;73.168;2022-08-18T06:56:32;0.80;;;0.70;;
59157;SDS011;44940;55.060;73.168;2022-08-18T06:59:19;3.42;;;0.77;;
59157;SDS011;44940;55.060;73.168;2022-08-18T07:01:50;4.95;;;0.85;;
59157;SDS011;44940;55.060;73.168;2022-08-18T07:07:29;2.47;;;1.10;;
59157;SDS011;44940;55.060;73.168;2022-08-18T07:10:00;2.55;;;0.60;;
59157;SDS011;44940;55.060;73.168;2022-08-18T07:12:29;4.72;;;0.70;;
59157;SDS011;44940;55.060;73.168;2022-08-18T07:14:56;3.53;;;0.70;;
59157;SDS011;44940;55.060;73.168;2022-08-18T07:17:26;0.60;;;0.40;;
59157;SDS011;44940;55.060;73.168;2022-08-18T07:19:55;2.28;;;0.60;;
59157;SDS011;44940;55.060;73.168;2022-08-18T07:22:25;8.05;;;1.00;;
59157;SDS011;44940;55.060;73.168;2022-08-18T07:24:52;1.88;;;0.80;;
59157;SDS011;44940;55.060;73.168;2022-08-18T07:27:38;3.60;;;0.80;;
59157;SDS011;44940;55.060;73.168;2022-08-18T07:30:08;7.50;;;1.15;;
59157;SDS011;44940;55.060;73.168;2022-08-18T07:32:39;0.57;;;0.50;;
59157;SDS011;44940;55.060;73.168;2022-08-18T07:35:11;3.85;;;0.52;;
59157;SDS011;44940;55.060;73.168;2022-08-18T07:37:42;6.20;;;0.95;;
59157;SDS011;44940;55.060;73.168;2022-08-18T07:40:19;1.58;;;0.70;;
59157;SDS011;44940;55.060;73.168;2022-08-18T07:42:54;5.05;;;0.93;;
59157;SDS011;44940;55.060;73.168;2022-08-18T07:45:27;1.67;;;0.68;;
59157;SDS011;44940;55.060;73.168;2022-08-18T07:47:58;0.43;;;0.40;;
59157;SDS011;44940;55.060;73.168;2022-08-18T07:50:31;3.85;;;0.80;;
59157;SDS011;44940;55.060;73.168;2022-08-18T07:53:06;3.17;;;0.60;;
59157;SDS011;44940;55.060;73.168;2022-08-18T07:55:39;6.60;;;0.85;;
59157;SDS011;44940;55.060;73.168;2022-08-18T07:58:17;1.88;;;0.70;;
59157;SDS011;44940;55.060;73.168;2022-08-18T08:00:52;2.50;;;0.68;;
59157;SDS011;44940;55.060;73.168;2022-08-18T08:05:57;1.17;;;0.65;;
59157;SDS011;44940;55.060;73.168;2022-08-18T08:08:34;2.75;;;0.82;;
59157;SDS011;44940;55.060;73.168;2022-08-18T08:11:14;9.80;;;2.38;;
59157;SDS011;44940;55.060;73.168;2022-08-18T08:14:04;7.78;;;1.00;;
59157;SDS011;44940;55.060;73.168;2022-08-18T08:16:42;6.75;;;1.10;;
59157;SDS011;44940;55.060;73.168;2022-08-18T08:19:19;3.33;;;0.60;;
59157;SDS011;44940;55.060;73.168;2022-08-18T08:21:59;2.55;;;0.70;;
59157;SDS011;44940;55.060;73.168;2022-08-18T08:24:45;2.40;;;0.60;;
59157;SDS011;44940;55.060;73.168;2022-08-18T08:27:26;0.80;;;0.70;;
59157;SDS011;44940;55.060;73.168;2022-08-18T08:30:05;5.65;;;2.35;;
59157;SDS011;44940;55.060;73.168;2022-08-18T08:32:36;3.05;;;0.77;;
59157;SDS011;44940;55.060;73.168;2022-08-18T08:35:16;3.22;;;0.60;;
59157;SDS011;44940;55.060;73.168;2022-08-18T08:37:50;3.50;;;0.63;;
59157;SDS011;44940;55.060;73.168;2022-08-18T08:40:21;3.15;;;0.50;;
59157;SDS011;44940;55.060;73.168;2022-08-18T08:42:53;0.77;;;0.57;;
59157;SDS011;44940;55.060;73.168;2022-08-18T08:45:30;3.38;;;1.00;;
59157;SDS011;44940;55.060;73.168;2022-08-18T08:48:01;3.03;;;0.80;;
59157;SDS011;44940;55.060;73.168;2022-08-18T08:50:33;1.75;;;0.90;;
59157;SDS011;44940;55.060;73.168;2022-08-18T08:53:05;4.15;;;0.70;;
59157;SDS011;44940;55.060;73.168;2022-08-18T08:58:11;2.33;;;0.40;;
59157;SDS011;44940;55.060;73.168;2022-08-18T09:00:47;10.88;;;0.57;;
59157;SDS011;44940;55.060;73.168;2022-08-18T09:03:25;2.22;;;0.47;;
59157;SDS011;44940;55.060;73.168;2022-08-18T09:06:04;3.33;;;1.02;;
59157;SDS011;44940;55.060;73.168;2022-08-18T09:08:56;4.07;;;0.90;;
59157;SDS011;44940;55.060;73.168;2022-08-18T09:11:40;5.05;;;0.90;;
59157;SDS011;44940;55.060;73.168;2022-08-18T09:17:31;0.55;;;0.43;;
59157;SDS011;44940;55.060;73.168;2022-08-18T09:20:14;7.55;;;0.68;;
59157;SDS011;44940;55.060;73.168;2022-08-18T09:22:53;4.80;;;1.33;;
59157;SDS011;44940;55.060;73.168;2022-08-18T09:25:29;2.40;;;0.60;;
59157;SDS011;44940;55.060;73.168;2022-08-18T09:28:06;0.70;;;0.50;;
59157;SDS011;44940;55.060;73.168;2022-08-18T09:30:47;36.00;;;2.60;;
59157;SDS011;44940;55.060;73.168;2022-08-18T09:33:52;6.50;;;1.75;;
59157;SDS011;44940;55.060;73.168;2022-08-18T09:36:38;9.90;;;2.00;;
59157;SDS011;44940;55.060;73.168;2022-08-18T09:39:18;1.42;;;0.70;;
59157;SDS011;44940;55.060;73.168;2022-08-18T09:42:11;2.17;;;0.70;;
59157;SDS011;44940;55.060;73.168;2022-08-18T09:50:38;1.25;;;0.55;;
59157;SDS011;44940;55.060;73.168;2022-08-18T09:59:50;3.50;;;0.80;;
59157;SDS011;44940;55.060;73.168;2022-08-18T10:12:16;3.47;;;0.80;;
59157;SDS011;44940;55.060;73.168;2022-08-18T10:17:48;3.63;;;0.63;;
59157;SDS011;44940;55.060;73.168;2022-08-18T10:20:33;1.23;;;0.70;;
59157;SDS011;44940;55.060;73.168;2022-08-18T10:23:09;3.10;;;0.65;;
59157;SDS011;44940;55.060;73.168;2022-08-18T10:25:37;2.60;;;0.82;;
59157;SDS011;44940;55.060;73.168;2022-08-18T10:28:08;1.58;;;0.98;;
59157;SDS011;44940;55.060;73.168;2022-08-18T10:30:47;3.55;;;0.68;;
59157;SDS011;44940;55.060;73.168;2022-08-18T10:36:31;2.65;;;0.70;;
59157;SDS011;44940;55.060;73.168;2022-08-18T10:39:20;1.40;;;0.60;;
59157;SDS011;44940;55.060;73.168;2022-08-18T10:41:53;6.43;;;0.83;;
59157;SDS011;44940;55.060;73.168;2022-08-18T10:44:26;14.93;;;1.40;;
59157;SDS011;44940;55.060;73.168;2022-08-18T10:46:56;2.53;;;0.60;;
59157;SDS011;44940;55.060;73.168;2022-08-18T10:49:26;2.75;;;0.85;;
59157;SDS011;44940;55.060;73.168;2022-08-18T10:52:06;4.15;;;0.50;;
59157;SDS011;44940;55.060;73.168;2022-08-18T10:57:51;1.05;;;0.60;;
59157;SDS011;44940;55.060;73.168;2022-08-18T11:00:37;6.78;;;1.15;;
59157;SDS011;44940;55.060;73.168;2022-08-18T11:03:11;1.40;;;0.77;;
59157;SDS011;44940;55.060;73.168;2022-08-18T11:05:45;6.85;;;0.93;;
59157;SDS011;44940;55.060;73.168;2022-08-18T11:08:13;2.45;;;0.80;;
59157;SDS011;44940;55.060;73.168;2022-08-18T11:10:47;2.83;;;0.70;;
59157;SDS011;44940;55.060;73.168;2022-08-18T11:13:17;4.03;;;0.80;;
59157;SDS011;44940;55.060;73.168;2022-08-18T11:15:56;4.60;;;0.77;;
59157;SDS011;44940;55.060;73.168;2022-08-18T11:18:33;3.95;;;0.90;;
59157;SDS011;44940;55.060;73.168;2022-08-18T11:21:20;12.15;;;0.80;;
59157;SDS011;44940;55.060;73.168;2022-08-18T11:24:01;2.65;;;1.35;;
59157;SDS011;44940;55.060;73.168;2022-08-18T11:26:35;3.53;;;1.80;;
59157;SDS011;44940;55.060;73.168;2022-08-18T11:29:17;6.15;;;3.78;;
59157;SDS011;44940;55.060;73.168;2022-08-18T11:31:49;2.92;;;0.80;;
59157;SDS011;44940;55.060;73.168;2022-08-18T11:34:23;4.60;;;0.95;;
59157;SDS011;44940;55.060;73.168;2022-08-18T11:36:56;4.47;;;0.98;;
59157;SDS011;44940;55.060;73.168;2022-08-18T11:39:25;11.55;;;1.20;;
59157;SDS011;44940;55.060;73.168;2022-08-18T11:41:54;5.97;;;1.95;;
59157;SDS011;44940;55.060;73.168;2022-08-18T11:44:24;2.70;;;0.90;;
59157;SDS011;44940;55.060;73.168;2022-08-18T11:47:07;0.73;;;0.50;;
59157;SDS011;44940;55.060;73.168;2022-08-18T11:49:44;1.70;;;0.70;;
59157;SDS011;44940;55.060;73.168;2022-08-18T11:52:19;1.05;;;0.60;;
59157;SDS011;44940;55.060;73.168;2022-08-18T11:54:50;1.65;;;0.50;;
59157;SDS011;44940;55.060;73.168;2022-08-18T11:57:37;4.70;;;1.40;;
59157;SDS011;44940;55.060;73.168;2022-08-18T12:03:05;6.95;;;1.00;;
59157;SDS011;44940;55.060;73.168;2022-08-18T12:05:42;13.23;;;1.35;;
59157;SDS011;44940;55.060;73.168;2022-08-18T12:08:21;12.80;;;1.30;;
59157;SDS011;44940;55.060;73.168;2022-08-18T12:11:00;1.52;;;0.82;;
59157;SDS011;44940;55.060;73.168;2022-08-18T12:13:31;3.17;;;0.70;;
59157;SDS011;44940;55.060;73.168;2022-08-18T12:16:12;1.85;;;0.70;;
59157;SDS011;44940;55.060;73.168;2022-08-18T12:18:41;1.85;;;0.60;;
59157;SDS011;44940;55.060;73.168;2022-08-18T12:21:08;2.60;;;1.00;;
59157;SDS011;44940;55.060;73.168;2022-08-18T12:23:37;5.03;;;0.85;;
59157;SDS011;44940;55.060;73.168;2022-08-18T12:26:06;4.78;;;1.05;;
59157;SDS011;44940;55.060;73.168;2022-08-18T12:28:35;3.53;;;0.70;;
59157;SDS011;44940;55.060;73.168;2022-08-18T12:31:02;3.72;;;0.70;;
59157;SDS011;44940;55.060;73.168;2022-08-18T12:33:29;5.40;;;1.08;;
59157;SDS011;44940;55.060;73.168;2022-08-18T12:35:57;6.47;;;1.00;;
59157;SDS011;44940;55.060;73.168;2022-08-18T12:38:24;11.57;;;1.17;;
59157;SDS011;44940;55.060;73.168;2022-08-18T12:40:51;7.53;;;1.08;;
59157;SDS011;44940;55.060;73.168;2022-08-18T12:43:18;22.98;;;1.20;;
59157;SDS011;44940;55.060;73.168;2022-08-18T12:45:47;1.90;;;0.70;;
59157;SDS011;44940;55.060;73.168;2022-08-18T12:48:14;5.53;;;1.10;;
59157;SDS011;44940;55.060;73.168;2022-08-18T12:50:41;1.88;;;0.80;;
59157;SDS011;44940;55.060;73.168;2022-08-18T12:53:09;10.07;;;1.73;;
59157;SDS011;44940;55.060;73.168;2022-08-18T12:55:39;5.55;;;1.75;;
59157;SDS011;44940;55.060;73.168;2022-08-18T12:58:08;3.60;;;1.13;;
59157;SDS011;44940;55.060;73.168;2022-08-18T13:00:35;9.02;;;3.72;;
59157;SDS011;44940;55.060;73.168;2022-08-18T13:03:03;10.55;;;2.80;;
59157;SDS011;44940;55.060;73.168;2022-08-18T13:05:30;7.82;;;2.20;;
59157;SDS011;44940;55.060;73.168;2022-08-18T13:08:00;6.63;;;1.45;;
59157;SDS011;44940;55.060;73.168;2022-08-18T13:10:28;18.45;;;1.90;;
59157;SDS011;44940;55.060;73.168;2022-08-18T13:12:55;1.90;;;0.82;;
59157;SDS011;44940;55.060;73.168;2022-08-18T13:15:22;2.60;;;1.20;;
59157;SDS011;44940;55.060;73.168;2022-08-18T13:17:49;1.10;;;0.85;;
59157;SDS011;44940;55.060;73.168;2022-08-18T13:20:18;4.88;;;0.85;;
59157;SDS011;44940;55.060;73.168;2022-08-18T13:22:46;7.20;;;0.80;;
59157;SDS011;44940;55.060;73.168;2022-08-18T13:25:14;7.50;;;1.05;;
59157;SDS011;44940;55.060;73.168;2022-08-18T13:27:43;5.65;;;1.60;;
59157;SDS011;44940;55.060;73.168;2022-08-18T13:30:11;4.32;;;1.13;;
59157;SDS011;44940;55.060;73.168;2022-08-18T13:32:40;1.25;;;0.82;;
59157;SDS011;44940;55.060;73.168;2022-08-18T13:35:09;1.40;;;0.90;;
59157;SDS011;44940;55.060;73.168;2022-08-18T13:37:38;4.63;;;1.17;;
59157;SDS011;44940;55.060;73.168;2022-08-18T13:40:07;1.77;;;0.80;;
59157;SDS011;44940;55.060;73.168;2022-08-18T13:42:45;1.90;;;1.08;;
59157;SDS011;44940;55.060;73.168;2022-08-18T13:45:16;9.07;;;2.20;;
59157;SDS011;44940;55.060;73.168;2022-08-18T13:47:45;3.97;;;0.95;;
59157;SDS011;44940;55.060;73.168;2022-08-18T13:50:13;5.95;;;1.60;;
59157;SDS011;44940;55.060;73.168;2022-08-18T13:52:42;2.45;;;1.20;;
59157;SDS011;44940;55.060;73.168;2022-08-18T13:55:11;6.13;;;1.83;;
59157;SDS011;44940;55.060;73.168;2022-08-18T13:57:40;3.67;;;2.00;;
59157;SDS011;44940;55.060;73.168;2022-08-18T14:00:14;1.92;;;0.80;;
59157;SDS011;44940;55.060;73.168;2022-08-18T14:02:42;1.42;;;1.00;;
59157;SDS011;44940;55.060;73.168;2022-08-18T14:05:10;1.73;;;0.70;;
59157;SDS011;44940;55.060;73.168;2022-08-18T14:07:37;0.90;;;0.80;;
59157;SDS011;44940;55.060;73.168;2022-08-18T14:10:06;4.63;;;1.27;;
59157;SDS011;44940;55.060;73.168;2022-08-18T14:12:34;2.55;;;1.13;;
59157;SDS011;44940;55.060;73.168;2022-08-18T14:15:03;6.88;;;1.30;;
59157;SDS011;44940;55.060;73.168;2022-08-18T14:17:32;3.15;;;1.40;;
59157;SDS011;44940;55.060;73.168;2022-08-18T14:20:00;5.75;;;1.85;;
59157;SDS011;44940;55.060;73.168;2022-08-18T14:22:46;1.75;;;1.10;;
59157;SDS011;44940;55.060;73.168;2022-08-18T14:25:35;3.03;;;1.00;;
59157;SDS011;44940;55.060;73.168;2022-08-18T14:28:20;1.70;;;0.90;;
59157;SDS011;44940;55.060;73.168;2022-08-18T14:30:47;4.00;;;2.03;;
59157;SDS011;44940;55.060;73.168;2022-08-18T14:33:16;1.92;;;1.27;;
59157;SDS011;44940;55.060;73.168;2022-08-18T14:35:45;2.50;;;1.00;;
59157;SDS011;44940;55.060;73.168;2022-08-18T14:38:13;4.45;;;2.20;;
59157;SDS011;44940;55.060;73.168;2022-08-18T14:40:43;4.03;;;1.77;;
59157;SDS011;44940;55.060;73.168;2022-08-18T14:43:13;2.03;;;1.17;;
59157;SDS011;44940;55.060;73.168;2022-08-18T14:45:42;4.20;;;2.97;;
59157;SDS011;44940;55.060;73.168;2022-08-18T14:48:13;4.88;;;2.88;;
59157;SDS011;44940;55.060;73.168;2022-08-18T14:50:41;9.05;;;3.47;;
59157;SDS011;44940;55.060;73.168;2022-08-18T14:53:11;7.35;;;4.18;;
59157;SDS011;44940;55.060;73.168;2022-08-18T14:55:39;4.28;;;2.50;;
59157;SDS011;44940;55.060;73.168;2022-08-18T14:58:07;1.90;;;1.20;;
59157;SDS011;44940;55.060;73.168;2022-08-18T15:00:35;4.47;;;1.70;;
59157;SDS011;44940;55.060;73.168;2022-08-18T15:03:02;7.05;;;1.17;;
59157;SDS011;44940;55.060;73.168;2022-08-18T15:05:31;2.45;;;0.93;;
59157;SDS011;44940;55.060;73.168;2022-08-18T15:07:59;1.95;;;0.80;;
59157;SDS011;44940;55.060;73.168;2022-08-18T15:10:29;5.32;;;1.30;;
59157;SDS011;44940;55.060;73.168;2022-08-18T15:12:57;10.02;;;1.48;;
59157;SDS011;44940;55.060;73.168;2022-08-18T15:15:27;6.43;;;2.13;;
59157;SDS011;44940;55.060;73.168;2022-08-18T15:17:55;8.45;;;2.80;;
59157;SDS011;44940;55.060;73.168;2022-08-18T15:20:22;7.15;;;2.55;;
59157;SDS011;44940;55.060;73.168;2022-08-18T15:22:51;4.20;;;2.00;;
59157;SDS011;44940;55.060;73.168;2022-08-18T15:25:37;9.05;;;2.72;;
59157;SDS011;44940;55.060;73.168;2022-08-18T15:28:07;3.47;;;1.75;;
59157;SDS011;44940;55.060;73.168;2022-08-18T15:30:36;3.65;;;1.70;;
59157;SDS011;44940;55.060;73.168;2022-08-18T15:33:04;3.03;;;1.75;;
59157;SDS011;44940;55.060;73.168;2022-08-18T15:35:32;3.75;;;1.90;;
59157;SDS011;44940;55.060;73.168;2022-08-18T15:38:00;3.53;;;1.73;;
59157;SDS011;44940;55.060;73.168;2022-08-18T15:40:27;7.90;;;1.77;;
59157;SDS011;44940;55.060;73.168;2022-08-18T15:42:56;8.60;;;1.95;;
59157;SDS011;44940;55.060;73.168;2022-08-18T15:45:27;4.65;;;1.90;;
59157;SDS011;44940;55.060;73.168;2022-08-18T15:47:59;3.65;;;2.03;;